sensor_id;sensor_type;location;lat;lon;timestamp;P1;durP1;ratioP1;P2;durP2;ratioP2
74344;SDS011;62776;50.518;6.732;2022-09-17T00:00:07;7.13;;;5.88;;
74344;SDS011;62776;50.518;6.732;2022-09-17T00:02:54;8.70;;;5.18;;
74344;SDS011;62776;50.518;6.732;2022-09-17T00:05:40;11.35;;;5.72;;
74344;SDS011;62776;50.518;6.732;2022-09-17T00:08:27;10.05;;;4.97;;
74344;SDS011;62776;50.518;6.732;2022-09-17T00:11:18;8.15;;;5.05;;
74344;SDS011;62776;50.518;6.732;2022-09-17T00:14:07;7.22;;;4.55;;
74344;SDS011;62776;50.518;6.732;2022-09-17T00:16:58;6.22;;;4.22;;
74344;SDS011;62776;50.518;6.732;2022-09-17T00:19:44;7.97;;;4.88;;
74344;SDS011;62776;50.518;6.732;2022-09-17T00:22:30;7.20;;;4.78;;
74344;SDS011;62776;50.518;6.732;2022-09-17T00:25:17;6.65;;;4.38;;
74344;SDS011;62776;50.518;6.732;2022-09-17T00:28:03;7.55;;;4.55;;
74344;SDS011;62776;50.518;6.732;2022-09-17T00:30:49;8.82;;;4.40;;
74344;SDS011;62776;50.518;6.732;2022-09-17T00:33:35;4.95;;;3.97;;
74344;SDS011;62776;50.518;6.732;2022-09-17T00:36:22;5.90;;;4.55;;
74344;SDS011;62776;50.518;6.732;2022-09-17T00:39:12;7.60;;;4.22;;
74344;SDS011;62776;50.518;6.732;2022-09-17T00:42:00;7.80;;;4.70;;
74344;SDS011;62776;50.518;6.732;2022-09-17T00:44:50;7.60;;;4.90;;
74344;SDS011;62776;50.518;6.732;2022-09-17T00:47:42;5.25;;;4.20;;
74344;SDS011;62776;50.518;6.732;2022-09-17T00:50:39;9.05;;;4.90;;
74344;SDS011;62776;50.518;6.732;2022-09-17T00:53:26;5.38;;;4.10;;
74344;SDS011;62776;50.518;6.732;2022-09-17T00:56:14;8.95;;;4.07;;
74344;SDS011;62776;50.518;6.732;2022-09-17T00:59:09;7.75;;;5.30;;
74344;SDS011;62776;50.518;6.732;2022-09-17T01:01:55;7.82;;;4.78;;
74344;SDS011;62776;50.518;6.732;2022-09-17T01:04:42;10.20;;;5.53;;
74344;SDS011;62776;50.518;6.732;2022-09-17T01:07:40;7.22;;;4.78;;
74344;SDS011;62776;50.518;6.732;2022-09-17T01:13:51;9.82;;;5.32;;
74344;SDS011;62776;50.518;6.732;2022-09-17T01:16:42;9.55;;;5.82;;
74344;SDS011;62776;50.518;6.732;2022-09-17T01:39:35;6.57;;;5.18;;
74344;SDS011;62776;50.518;6.732;2022-09-17T01:43:04;10.07;;;5.85;;
74344;SDS011;62776;50.518;6.732;2022-09-17T01:46:19;9.07;;;5.00;;
74344;SDS011;62776;50.518;6.732;2022-09-17T01:49:05;7.65;;;5.70;;
74344;SDS011;62776;50.518;6.732;2022-09-17T01:51:54;7.82;;;5.35;;
74344;SDS011;62776;50.518;6.732;2022-09-17T01:54:44;7.03;;;4.85;;
74344;SDS011;62776;50.518;6.732;2022-09-17T01:57:35;6.35;;;4.93;;
74344;SDS011;62776;50.518;6.732;2022-09-17T02:00:34;7.07;;;4.47;;
74344;SDS011;62776;50.518;6.732;2022-09-17T02:03:30;7.60;;;5.03;;
74344;SDS011;62776;50.518;6.732;2022-09-17T02:06:39;9.77;;;5.85;;
74344;SDS011;62776;50.518;6.732;2022-09-17T02:09:37;8.35;;;5.10;;
74344;SDS011;62776;50.518;6.732;2022-09-17T02:12:29;9.82;;;5.78;;
74344;SDS011;62776;50.518;6.732;2022-09-17T02:15:24;9.60;;;5.90;;
74344;SDS011;62776;50.518;6.732;2022-09-17T02:18:23;10.38;;;6.00;;
74344;SDS011;62776;50.518;6.732;2022-09-17T02:21:19;7.95;;;6.20;;
74344;SDS011;62776;50.518;6.732;2022-09-17T02:30:14;9.27;;;6.00;;
74344;SDS011;62776;50.518;6.732;2022-09-17T02:33:01;11.10;;;6.47;;
74344;SDS011;62776;50.518;6.732;2022-09-17T02:35:51;8.93;;;5.85;;
74344;SDS011;62776;50.518;6.732;2022-09-17T02:38:37;9.77;;;6.10;;
74344;SDS011;62776;50.518;6.732;2022-09-17T02:41:29;8.40;;;6.40;;
74344;SDS011;62776;50.518;6.732;2022-09-17T02:44:37;12.52;;;5.90;;
74344;SDS011;62776;50.518;6.732;2022-09-17T02:54:22;10.30;;;5.78;;
74344;SDS011;62776;50.518;6.732;2022-09-17T02:57:07;8.18;;;5.13;;
74344;SDS011;62776;50.518;6.732;2022-09-17T03:00:13;10.85;;;5.70;;
74344;SDS011;62776;50.518;6.732;2022-09-17T03:06:15;9.90;;;5.30;;
74344;SDS011;62776;50.518;6.732;2022-09-17T03:09:02;13.15;;;6.10;;
74344;SDS011;62776;50.518;6.732;2022-09-17T03:11:48;11.55;;;5.40;;
74344;SDS011;62776;50.518;6.732;2022-09-17T03:14:34;12.65;;;6.03;;
74344;SDS011;62776;50.518;6.732;2022-09-17T03:17:20;9.85;;;4.30;;
74344;SDS011;62776;50.518;6.732;2022-09-17T03:20:07;15.52;;;6.50;;
74344;SDS011;62776;50.518;6.732;2022-09-17T03:22:53;15.60;;;4.93;;
74344;SDS011;62776;50.518;6.732;2022-09-17T03:25:39;12.90;;;4.93;;
74344;SDS011;62776;50.518;6.732;2022-09-17T03:28:25;9.55;;;4.97;;
74344;SDS011;62776;50.518;6.732;2022-09-17T03:31:11;12.45;;;4.88;;
74344;SDS011;62776;50.518;6.732;2022-09-17T03:33:57;9.40;;;4.43;;
74344;SDS011;62776;50.518;6.732;2022-09-17T03:36:44;15.70;;;4.15;;
74344;SDS011;62776;50.518;6.732;2022-09-17T03:39:30;11.80;;;4.30;;
74344;SDS011;62776;50.518;6.732;2022-09-17T03:42:16;8.07;;;3.95;;
74344;SDS011;62776;50.518;6.732;2022-09-17T03:45:02;9.63;;;4.10;;
74344;SDS011;62776;50.518;6.732;2022-09-17T03:47:48;11.68;;;3.85;;
74344;SDS011;62776;50.518;6.732;2022-09-17T03:50:34;12.57;;;3.95;;
74344;SDS011;62776;50.518;6.732;2022-09-17T03:53:20;9.48;;;3.80;;
74344;SDS011;62776;50.518;6.732;2022-09-17T03:56:06;9.27;;;3.58;;
74344;SDS011;62776;50.518;6.732;2022-09-17T03:58:56;9.82;;;3.47;;
74344;SDS011;62776;50.518;6.732;2022-09-17T04:01:43;16.15;;;4.22;;
74344;SDS011;62776;50.518;6.732;2022-09-17T04:04:29;14.68;;;4.18;;
74344;SDS011;62776;50.518;6.732;2022-09-17T04:07:15;9.43;;;4.20;;
74344;SDS011;62776;50.518;6.732;2022-09-17T04:10:01;12.48;;;4.45;;
74344;SDS011;62776;50.518;6.732;2022-09-17T04:12:48;8.93;;;3.78;;
74344;SDS011;62776;50.518;6.732;2022-09-17T04:15:35;10.27;;;3.55;;
74344;SDS011;62776;50.518;6.732;2022-09-17T04:18:21;8.50;;;3.60;;
74344;SDS011;62776;50.518;6.732;2022-09-17T04:21:07;10.85;;;4.13;;
74344;SDS011;62776;50.518;6.732;2022-09-17T04:23:53;10.48;;;3.60;;
74344;SDS011;62776;50.518;6.732;2022-09-17T04:26:39;8.25;;;3.55;;
74344;SDS011;62776;50.518;6.732;2022-09-17T04:29:25;12.55;;;3.78;;
74344;SDS011;62776;50.518;6.732;2022-09-17T04:32:12;11.38;;;3.78;;
74344;SDS011;62776;50.518;6.732;2022-09-17T04:34:58;10.50;;;4.07;;
74344;SDS011;62776;50.518;6.732;2022-09-17T04:37:50;9.38;;;4.20;;
74344;SDS011;62776;50.518;6.732;2022-09-17T04:40:40;8.30;;;2.97;;
74344;SDS011;62776;50.518;6.732;2022-09-17T04:43:26;13.40;;;3.38;;
74344;SDS011;62776;50.518;6.732;2022-09-17T04:46:12;9.27;;;3.60;;
74344;SDS011;62776;50.518;6.732;2022-09-17T04:49:00;11.15;;;3.50;;
74344;SDS011;62776;50.518;6.732;2022-09-17T04:51:46;7.80;;;3.58;;
74344;SDS011;62776;50.518;6.732;2022-09-17T04:54:32;9.35;;;3.35;;
74344;SDS011;62776;50.518;6.732;2022-09-17T04:57:18;6.53;;;3.03;;
74344;SDS011;62776;50.518;6.732;2022-09-17T05:00:05;9.98;;;3.45;;
74344;SDS011;62776;50.518;6.732;2022-09-17T05:02:54;5.25;;;3.03;;
74344;SDS011;62776;50.518;6.732;2022-09-17T05:05:40;8.38;;;3.10;;
74344;SDS011;62776;50.518;6.732;2022-09-17T05:08:26;14.02;;;4.35;;
74344;SDS011;62776;50.518;6.732;2022-09-17T05:11:12;8.57;;;2.83;;
74344;SDS011;62776;50.518;6.732;2022-09-17T05:13:58;7.35;;;3.50;;
74344;SDS011;62776;50.518;6.732;2022-09-17T05:16:45;8.75;;;2.95;;
74344;SDS011;62776;50.518;6.732;2022-09-17T05:19:31;7.75;;;3.63;;
74344;SDS011;62776;50.518;6.732;2022-09-17T05:22:17;8.32;;;3.28;;
74344;SDS011;62776;50.518;6.732;2022-09-17T05:25:05;8.80;;;3.15;;
74344;SDS011;62776;50.518;6.732;2022-09-17T05:27:51;11.15;;;3.38;;
74344;SDS011;62776;50.518;6.732;2022-09-17T05:30:38;10.13;;;3.67;;
74344;SDS011;62776;50.518;6.732;2022-09-17T05:33:24;13.13;;;3.42;;
74344;SDS011;62776;50.518;6.732;2022-09-17T05:36:11;8.60;;;3.58;;
74344;SDS011;62776;50.518;6.732;2022-09-17T05:38:57;5.93;;;2.45;;
74344;SDS011;62776;50.518;6.732;2022-09-17T05:41:43;10.82;;;3.70;;
74344;SDS011;62776;50.518;6.732;2022-09-17T05:44:30;10.23;;;3.17;;
74344;SDS011;62776;50.518;6.732;2022-09-17T05:47:16;8.02;;;3.05;;
74344;SDS011;62776;50.518;6.732;2022-09-17T05:50:02;7.18;;;3.05;;
74344;SDS011;62776;50.518;6.732;2022-09-17T05:52:48;11.35;;;3.08;;
74344;SDS011;62776;50.518;6.732;2022-09-17T05:55:35;7.72;;;2.65;;
74344;SDS011;62776;50.518;6.732;2022-09-17T05:58:21;6.20;;;2.08;;
74344;SDS011;62776;50.518;6.732;2022-09-17T06:01:07;10.77;;;2.55;;
74344;SDS011;62776;50.518;6.732;2022-09-17T06:03:59;6.03;;;2.60;;
74344;SDS011;62776;50.518;6.732;2022-09-17T06:06:48;7.43;;;2.97;;
74344;SDS011;62776;50.518;6.732;2022-09-17T06:09:34;6.75;;;2.25;;
74344;SDS011;62776;50.518;6.732;2022-09-17T06:12:24;7.43;;;2.15;;
74344;SDS011;62776;50.518;6.732;2022-09-17T06:15:10;9.68;;;3.38;;
74344;SDS011;62776;50.518;6.732;2022-09-17T06:17:58;7.57;;;2.95;;
74344;SDS011;62776;50.518;6.732;2022-09-17T06:20:57;7.60;;;2.67;;
74344;SDS011;62776;50.518;6.732;2022-09-17T06:23:45;6.72;;;3.03;;
74344;SDS011;62776;50.518;6.732;2022-09-17T06:26:31;3.85;;;1.80;;
74344;SDS011;62776;50.518;6.732;2022-09-17T06:29:18;6.57;;;2.20;;
74344;SDS011;62776;50.518;6.732;2022-09-17T06:32:04;8.85;;;2.78;;
74344;SDS011;62776;50.518;6.732;2022-09-17T06:34:54;7.38;;;2.80;;
74344;SDS011;62776;50.518;6.732;2022-09-17T06:37:41;6.03;;;2.40;;
74344;SDS011;62776;50.518;6.732;2022-09-17T06:40:27;6.50;;;2.53;;
74344;SDS011;62776;50.518;6.732;2022-09-17T06:43:13;4.68;;;2.28;;
74344;SDS011;62776;50.518;6.732;2022-09-17T06:46:00;5.13;;;2.45;;
74344;SDS011;62776;50.518;6.732;2022-09-17T06:48:49;5.47;;;2.17;;
74344;SDS011;62776;50.518;6.732;2022-09-17T06:51:35;4.63;;;2.72;;
74344;SDS011;62776;50.518;6.732;2022-09-17T06:54:21;7.75;;;2.55;;
74344;SDS011;62776;50.518;6.732;2022-09-17T06:57:07;5.82;;;2.55;;
74344;SDS011;62776;50.518;6.732;2022-09-17T06:59:53;5.22;;;2.33;;
74344;SDS011;62776;50.518;6.732;2022-09-17T07:02:39;6.32;;;2.15;;
74344;SDS011;62776;50.518;6.732;2022-09-17T07:05:26;8.75;;;2.78;;
74344;SDS011;62776;50.518;6.732;2022-09-17T07:08:13;5.80;;;2.63;;
74344;SDS011;62776;50.518;6.732;2022-09-17T07:10:59;5.30;;;1.98;;
74344;SDS011;62776;50.518;6.732;2022-09-17T07:13:45;7.18;;;2.72;;
74344;SDS011;62776;50.518;6.732;2022-09-17T07:16:31;8.88;;;2.72;;
74344;SDS011;62776;50.518;6.732;2022-09-17T07:19:19;5.70;;;2.00;;
74344;SDS011;62776;50.518;6.732;2022-09-17T07:22:06;6.65;;;2.65;;
74344;SDS011;62776;50.518;6.732;2022-09-17T07:24:52;6.20;;;2.58;;
74344;SDS011;62776;50.518;6.732;2022-09-17T07:27:38;8.50;;;2.35;;
74344;SDS011;62776;50.518;6.732;2022-09-17T07:30:24;7.80;;;2.92;;
74344;SDS011;62776;50.518;6.732;2022-09-17T07:33:10;9.90;;;2.70;;
74344;SDS011;62776;50.518;6.732;2022-09-17T07:35:58;9.00;;;2.75;;
74344;SDS011;62776;50.518;6.732;2022-09-17T07:38:45;8.18;;;2.17;;
74344;SDS011;62776;50.518;6.732;2022-09-17T07:41:31;4.22;;;1.98;;
74344;SDS011;62776;50.518;6.732;2022-09-17T07:44:18;4.70;;;2.03;;
74344;SDS011;62776;50.518;6.732;2022-09-17T07:47:06;7.57;;;2.53;;
74344;SDS011;62776;50.518;6.732;2022-09-17T07:49:52;4.57;;;1.85;;
74344;SDS011;62776;50.518;6.732;2022-09-17T07:52:41;3.78;;;1.65;;
74344;SDS011;62776;50.518;6.732;2022-09-17T07:55:31;5.55;;;2.50;;
74344;SDS011;62776;50.518;6.732;2022-09-17T07:58:17;5.35;;;2.17;;
74344;SDS011;62776;50.518;6.732;2022-09-17T08:01:07;3.92;;;1.60;;
74344;SDS011;62776;50.518;6.732;2022-09-17T08:03:55;3.25;;;1.40;;
74344;SDS011;62776;50.518;6.732;2022-09-17T08:06:41;4.90;;;2.08;;
74344;SDS011;62776;50.518;6.732;2022-09-17T08:09:27;5.68;;;2.22;;
74344;SDS011;62776;50.518;6.732;2022-09-17T08:12:13;5.55;;;1.92;;
74344;SDS011;62776;50.518;6.732;2022-09-17T08:15:02;7.35;;;2.80;;
74344;SDS011;62776;50.518;6.732;2022-09-17T08:17:49;7.55;;;2.20;;
74344;SDS011;62776;50.518;6.732;2022-09-17T08:20:36;3.45;;;1.60;;
74344;SDS011;62776;50.518;6.732;2022-09-17T08:23:22;6.07;;;2.35;;
74344;SDS011;62776;50.518;6.732;2022-09-17T08:26:13;7.50;;;2.78;;
74344;SDS011;62776;50.518;6.732;2022-09-17T08:29:01;10.45;;;2.95;;
74344;SDS011;62776;50.518;6.732;2022-09-17T08:31:47;13.77;;;2.50;;
74344;SDS011;62776;50.518;6.732;2022-09-17T08:34:33;7.13;;;2.00;;
74344;SDS011;62776;50.518;6.732;2022-09-17T08:37:21;5.45;;;2.05;;
74344;SDS011;62776;50.518;6.732;2022-09-17T08:40:11;7.55;;;2.30;;
74344;SDS011;62776;50.518;6.732;2022-09-17T08:43:01;5.53;;;2.40;;
74344;SDS011;62776;50.518;6.732;2022-09-17T08:45:52;7.55;;;2.70;;
74344;SDS011;62776;50.518;6.732;2022-09-17T08:48:55;6.65;;;2.47;;
74344;SDS011;62776;50.518;6.732;2022-09-17T08:52:08;6.85;;;2.10;;
74344;SDS011;62776;50.518;6.732;2022-09-17T08:58:48;6.97;;;2.50;;
74344;SDS011;62776;50.518;6.732;2022-09-17T09:02:02;8.38;;;2.28;;
74344;SDS011;62776;50.518;6.732;2022-09-17T09:05:15;4.80;;;1.85;;
74344;SDS011;62776;50.518;6.732;2022-09-17T09:08:09;6.10;;;2.60;;
74344;SDS011;62776;50.518;6.732;2022-09-17T09:11:05;3.72;;;1.92;;
74344;SDS011;62776;50.518;6.732;2022-09-17T09:14:20;6.38;;;2.67;;
74344;SDS011;62776;50.518;6.732;2022-09-17T09:17:11;17.35;;;2.22;;
74344;SDS011;62776;50.518;6.732;2022-09-17T09:19:59;3.58;;;1.55;;
74344;SDS011;62776;50.518;6.732;2022-09-17T09:22:47;6.55;;;1.70;;
74344;SDS011;62776;50.518;6.732;2022-09-17T09:25:38;4.82;;;1.73;;
74344;SDS011;62776;50.518;6.732;2022-09-17T09:28:45;13.88;;;2.47;;
74344;SDS011;62776;50.518;6.732;2022-09-17T09:41:38;4.75;;;1.90;;
74344;SDS011;62776;50.518;6.732;2022-09-17T09:44:29;6.25;;;1.67;;
74344;SDS011;62776;50.518;6.732;2022-09-17T09:47:24;3.03;;;1.80;;
74344;SDS011;62776;50.518;6.732;2022-09-17T09:50:42;4.10;;;1.50;;
74344;SDS011;62776;50.518;6.732;2022-09-17T09:53:34;3.40;;;1.52;;
74344;SDS011;62776;50.518;6.732;2022-09-17T09:59:39;4.57;;;1.50;;
74344;SDS011;62776;50.518;6.732;2022-09-17T10:02:28;5.43;;;1.88;;
74344;SDS011;62776;50.518;6.732;2022-09-17T10:05:14;3.55;;;1.50;;
74344;SDS011;62776;50.518;6.732;2022-09-17T10:08:09;5.03;;;2.00;;
74344;SDS011;62776;50.518;6.732;2022-09-17T10:13:50;6.15;;;1.80;;
74344;SDS011;62776;50.518;6.732;2022-09-17T10:16:36;2.88;;;1.50;;
74344;SDS011;62776;50.518;6.732;2022-09-17T10:19:22;5.28;;;1.98;;
74344;SDS011;62776;50.518;6.732;2022-09-17T10:22:23;5.22;;;1.73;;
74344;SDS011;62776;50.518;6.732;2022-09-17T10:25:23;2.85;;;1.33;;
74344;SDS011;62776;50.518;6.732;2022-09-17T10:31:08;8.02;;;2.92;;
74344;SDS011;62776;50.518;6.732;2022-09-17T10:34:00;4.18;;;1.98;;
74344;SDS011;62776;50.518;6.732;2022-09-17T10:36:47;5.25;;;1.92;;
74344;SDS011;62776;50.518;6.732;2022-09-17T10:39:34;5.80;;;1.45;;
74344;SDS011;62776;50.518;6.732;2022-09-17T10:42:22;5.13;;;1.67;;
74344;SDS011;62776;50.518;6.732;2022-09-17T10:45:10;9.07;;;1.90;;
74344;SDS011;62776;50.518;6.732;2022-09-17T10:48:16;2.97;;;1.83;;
74344;SDS011;62776;50.518;6.732;2022-09-17T10:51:05;5.03;;;1.33;;
74344;SDS011;62776;50.518;6.732;2022-09-17T10:53:56;5.47;;;2.40;;
74344;SDS011;62776;50.518;6.732;2022-09-17T10:57:03;2.97;;;1.33;;
74344;SDS011;62776;50.518;6.732;2022-09-17T10:59:59;9.63;;;2.60;;
74344;SDS011;62776;50.518;6.732;2022-09-17T11:03:27;8.48;;;1.77;;
74344;SDS011;62776;50.518;6.732;2022-09-17T11:06:38;20.15;;;2.92;;
74344;SDS011;62776;50.518;6.732;2022-09-17T11:09:43;4.50;;;1.77;;
74344;SDS011;62776;50.518;6.732;2022-09-17T11:19:09;6.45;;;1.40;;
74344;SDS011;62776;50.518;6.732;2022-09-17T11:25:14;5.17;;;1.47;;
74344;SDS011;62776;50.518;6.732;2022-09-17T11:28:12;4.47;;;1.85;;
74344;SDS011;62776;50.518;6.732;2022-09-17T11:37:37;8.10;;;1.20;;
74344;SDS011;62776;50.518;6.732;2022-09-17T11:41:35;4.88;;;1.77;;
74344;SDS011;62776;50.518;6.732;2022-09-17T11:47:19;1.95;;;0.98;;
74344;SDS011;62776;50.518;6.732;2022-09-17T11:50:19;5.53;;;1.70;;
74344;SDS011;62776;50.518;6.732;2022-09-17T11:56:17;2.70;;;1.52;;
74344;SDS011;62776;50.518;6.732;2022-09-17T12:02:16;4.20;;;1.17;;
74344;SDS011;62776;50.518;6.732;2022-09-17T12:05:09;3.50;;;1.27;;
74344;SDS011;62776;50.518;6.732;2022-09-17T12:08:28;3.50;;;1.63;;
74344;SDS011;62776;50.518;6.732;2022-09-17T12:17:41;4.82;;;1.42;;
74344;SDS011;62776;50.518;6.732;2022-09-17T12:20:43;2.63;;;1.27;;
74344;SDS011;62776;50.518;6.732;2022-09-17T12:23:43;1.92;;;0.90;;
74344;SDS011;62776;50.518;6.732;2022-09-17T12:32:56;2.78;;;1.00;;
74344;SDS011;62776;50.518;6.732;2022-09-17T12:36:26;5.40;;;1.20;;
74344;SDS011;62776;50.518;6.732;2022-09-17T12:42:14;1.75;;;0.95;;
74344;SDS011;62776;50.518;6.732;2022-09-17T12:51:18;0.40;;;0.40;;
74344;SDS011;62776;50.518;6.732;2022-09-17T12:57:20;0.30;;;0.30;;
74344;SDS011;62776;50.518;6.732;2022-09-17T13:00:09;0.20;;;0.20;;
74344;SDS011;62776;50.518;6.732;2022-09-17T13:03:05;0.30;;;0.30;;
74344;SDS011;62776;50.518;6.732;2022-09-17T13:09:11;0.25;;;0.25;;
74344;SDS011;62776;50.518;6.732;2022-09-17T13:12:14;0.30;;;0.30;;
74344;SDS011;62776;50.518;6.732;2022-09-17T13:15:13;0.20;;;0.20;;
74344;SDS011;62776;50.518;6.732;2022-09-17T13:19:03;0.30;;;0.30;;
74344;SDS011;62776;50.518;6.732;2022-09-17T13:21:54;0.50;;;0.50;;
74344;SDS011;62776;50.518;6.732;2022-09-17T13:25:00;0.30;;;0.30;;
74344;SDS011;62776;50.518;6.732;2022-09-17T13:28:08;0.25;;;0.25;;
74344;SDS011;62776;50.518;6.732;2022-09-17T13:30:59;0.38;;;0.38;;
74344;SDS011;62776;50.518;6.732;2022-09-17T13:33:55;0.30;;;0.30;;
74344;SDS011;62776;50.518;6.732;2022-09-17T13:36:50;0.40;;;0.40;;
74344;SDS011;62776;50.518;6.732;2022-09-17T13:42:43;0.30;;;0.30;;
74344;SDS011;62776;50.518;6.732;2022-09-17T13:45:32;0.30;;;0.30;;
74344;SDS011;62776;50.518;6.732;2022-09-17T13:48:42;0.30;;;0.30;;
74344;SDS011;62776;50.518;6.732;2022-09-17T13:54:21;0.30;;;0.30;;
74344;SDS011;62776;50.518;6.732;2022-09-17T13:57:19;0.20;;;0.20;;
74344;SDS011;62776;50.518;6.732;2022-09-17T14:00:05;0.30;;;0.30;;
74344;SDS011;62776;50.518;6.732;2022-09-17T14:21:14;2.72;;;1.10;;
74344;SDS011;62776;50.518;6.732;2022-09-17T14:24:22;2.60;;;1.05;;
74344;SDS011;62776;50.518;6.732;2022-09-17T14:27:14;2.17;;;1.08;;
74344;SDS011;62776;50.518;6.732;2022-09-17T14:30:39;1.75;;;1.23;;
74344;SDS011;62776;50.518;6.732;2022-09-17T14:33:19;2.97;;;0.80;;
74344;SDS011;62776;50.518;6.732;2022-09-17T14:36:15;4.38;;;1.20;;
74344;SDS011;62776;50.518;6.732;2022-09-17T14:39:07;2.40;;;1.20;;
74344;SDS011;62776;50.518;6.732;2022-09-17T14:42:00;1.67;;;1.10;;
74344;SDS011;62776;50.518;6.732;2022-09-17T14:44:56;1.45;;;0.70;;
74344;SDS011;62776;50.518;6.732;2022-09-17T14:47:48;1.70;;;0.80;;
74344;SDS011;62776;50.518;6.732;2022-09-17T14:59:54;1.55;;;0.98;;
74344;SDS011;62776;50.518;6.732;2022-09-17T15:02:41;0.98;;;0.75;;
74344;SDS011;62776;50.518;6.732;2022-09-17T15:05:29;3.10;;;1.15;;
74344;SDS011;62776;50.518;6.732;2022-09-17T15:08:18;2.85;;;1.10;;
74344;SDS011;62776;50.518;6.732;2022-09-17T15:11:08;1.80;;;1.00;;
74344;SDS011;62776;50.518;6.732;2022-09-17T15:13:55;5.03;;;1.73;;
74344;SDS011;62776;50.518;6.732;2022-09-17T15:16:50;2.75;;;1.20;;
74344;SDS011;62776;50.518;6.732;2022-09-17T15:19:39;3.15;;;1.25;;
74344;SDS011;62776;50.518;6.732;2022-09-17T15:22:32;3.40;;;1.40;;
74344;SDS011;62776;50.518;6.732;2022-09-17T15:25:23;3.65;;;1.33;;
74344;SDS011;62776;50.518;6.732;2022-09-17T15:28:19;1.42;;;0.95;;
74344;SDS011;62776;50.518;6.732;2022-09-17T15:31:23;4.07;;;1.08;;
74344;SDS011;62776;50.518;6.732;2022-09-17T15:34:11;3.47;;;1.20;;
74344;SDS011;62776;50.518;6.732;2022-09-17T15:37:01;3.88;;;1.30;;
74344;SDS011;62776;50.518;6.732;2022-09-17T15:39:52;1.67;;;0.95;;
74344;SDS011;62776;50.518;6.732;2022-09-17T15:42:47;2.65;;;1.50;;
74344;SDS011;62776;50.518;6.732;2022-09-17T15:45:35;1.52;;;0.95;;
74344;SDS011;62776;50.518;6.732;2022-09-17T15:54:25;6.03;;;1.60;;
74344;SDS011;62776;50.518;6.732;2022-09-17T15:57:14;4.85;;;1.80;;
74344;SDS011;62776;50.518;6.732;2022-09-17T16:00:05;3.60;;;1.63;;
74344;SDS011;62776;50.518;6.732;2022-09-17T16:03:01;3.33;;;1.52;;
74344;SDS011;62776;50.518;6.732;2022-09-17T16:09:02;5.45;;;1.33;;
74344;SDS011;62776;50.518;6.732;2022-09-17T16:12:10;5.60;;;2.15;;
74344;SDS011;62776;50.518;6.732;2022-09-17T16:14:58;3.72;;;1.45;;
74344;SDS011;62776;50.518;6.732;2022-09-17T16:17:46;4.70;;;1.85;;
74344;SDS011;62776;50.518;6.732;2022-09-17T16:20:32;3.35;;;1.50;;
74344;SDS011;62776;50.518;6.732;2022-09-17T16:23:18;6.93;;;2.55;;
74344;SDS011;62776;50.518;6.732;2022-09-17T16:26:04;5.47;;;2.00;;
74344;SDS011;62776;50.518;6.732;2022-09-17T16:28:55;3.60;;;1.08;;
74344;SDS011;62776;50.518;6.732;2022-09-17T16:31:46;5.10;;;2.20;;
74344;SDS011;62776;50.518;6.732;2022-09-17T16:34:34;4.57;;;1.77;;
74344;SDS011;62776;50.518;6.732;2022-09-17T16:37:20;3.80;;;1.55;;
74344;SDS011;62776;50.518;6.732;2022-09-17T16:40:10;7.75;;;2.30;;
74344;SDS011;62776;50.518;6.732;2022-09-17T16:43:00;7.43;;;2.20;;
74344;SDS011;62776;50.518;6.732;2022-09-17T16:45:57;3.25;;;1.60;;
74344;SDS011;62776;50.518;6.732;2022-09-17T16:48:43;5.05;;;2.40;;
74344;SDS011;62776;50.518;6.732;2022-09-17T16:51:33;6.30;;;2.20;;
74344;SDS011;62776;50.518;6.732;2022-09-17T16:54:19;4.00;;;1.77;;
74344;SDS011;62776;50.518;6.732;2022-09-17T16:57:05;6.47;;;1.60;;
74344;SDS011;62776;50.518;6.732;2022-09-17T16:59:51;5.45;;;1.85;;
74344;SDS011;62776;50.518;6.732;2022-09-17T17:02:39;9.30;;;2.40;;
74344;SDS011;62776;50.518;6.732;2022-09-17T17:05:25;4.40;;;2.20;;
74344;SDS011;62776;50.518;6.732;2022-09-17T17:08:11;6.28;;;2.00;;
74344;SDS011;62776;50.518;6.732;2022-09-17T17:10:58;8.35;;;2.05;;
74344;SDS011;62776;50.518;6.732;2022-09-17T17:13:45;4.75;;;1.90;;
74344;SDS011;62776;50.518;6.732;2022-09-17T17:16:31;5.25;;;2.13;;
74344;SDS011;62776;50.518;6.732;2022-09-17T17:19:17;7.07;;;2.67;;
74344;SDS011;62776;50.518;6.732;2022-09-17T17:22:03;6.95;;;1.85;;
74344;SDS011;62776;50.518;6.732;2022-09-17T17:24:50;7.03;;;2.55;;
74344;SDS011;62776;50.518;6.732;2022-09-17T17:27:36;5.78;;;1.70;;
74344;SDS011;62776;50.518;6.732;2022-09-17T17:30:23;4.47;;;1.95;;
74344;SDS011;62776;50.518;6.732;2022-09-17T17:33:09;7.65;;;2.55;;
74344;SDS011;62776;50.518;6.732;2022-09-17T17:35:58;7.90;;;1.80;;
74344;SDS011;62776;50.518;6.732;2022-09-17T17:38:44;5.93;;;2.67;;
74344;SDS011;62776;50.518;6.732;2022-09-17T17:41:30;9.93;;;2.95;;
74344;SDS011;62776;50.518;6.732;2022-09-17T17:44:16;8.68;;;2.72;;
74344;SDS011;62776;50.518;6.732;2022-09-17T17:47:03;5.82;;;2.40;;
74344;SDS011;62776;50.518;6.732;2022-09-17T17:49:50;6.80;;;2.00;;
74344;SDS011;62776;50.518;6.732;2022-09-17T17:52:36;8.73;;;2.47;;
74344;SDS011;62776;50.518;6.732;2022-09-17T17:55:24;7.15;;;2.72;;
74344;SDS011;62776;50.518;6.732;2022-09-17T17:58:10;4.55;;;2.03;;
74344;SDS011;62776;50.518;6.732;2022-09-17T18:00:56;8.27;;;2.55;;
74344;SDS011;62776;50.518;6.732;2022-09-17T18:03:43;6.97;;;3.55;;
74344;SDS011;62776;50.518;6.732;2022-09-17T18:06:29;5.15;;;1.77;;
74344;SDS011;62776;50.518;6.732;2022-09-17T18:09:15;4.45;;;2.50;;
74344;SDS011;62776;50.518;6.732;2022-09-17T18:12:01;7.15;;;2.63;;
74344;SDS011;62776;50.518;6.732;2022-09-17T18:14:47;6.43;;;1.90;;
74344;SDS011;62776;50.518;6.732;2022-09-17T18:17:33;5.82;;;1.80;;
74344;SDS011;62776;50.518;6.732;2022-09-17T18:20:20;4.03;;;2.10;;
74344;SDS011;62776;50.518;6.732;2022-09-17T18:23:06;6.15;;;1.92;;
74344;SDS011;62776;50.518;6.732;2022-09-17T18:25:56;5.65;;;1.90;;
74344;SDS011;62776;50.518;6.732;2022-09-17T18:28:45;5.93;;;2.55;;
74344;SDS011;62776;50.518;6.732;2022-09-17T18:31:33;6.78;;;2.15;;
74344;SDS011;62776;50.518;6.732;2022-09-17T18:34:19;3.83;;;1.98;;
74344;SDS011;62776;50.518;6.732;2022-09-17T18:37:05;4.47;;;2.10;;
74344;SDS011;62776;50.518;6.732;2022-09-17T18:39:51;9.63;;;2.65;;
74344;SDS011;62776;50.518;6.732;2022-09-17T18:42:38;5.22;;;2.05;;
74344;SDS011;62776;50.518;6.732;2022-09-17T18:45:24;8.38;;;3.08;;
74344;SDS011;62776;50.518;6.732;2022-09-17T18:48:10;6.03;;;2.13;;
74344;SDS011;62776;50.518;6.732;2022-09-17T18:50:57;0.20;;;0.20;;
74344;SDS011;62776;50.518;6.732;2022-09-17T18:53:44;0.30;;;0.30;;
74344;SDS011;62776;50.518;6.732;2022-09-17T18:56:31;0.20;;;0.20;;
74344;SDS011;62776;50.518;6.732;2022-09-17T18:59:17;0.20;;;0.20;;
74344;SDS011;62776;50.518;6.732;2022-09-17T19:02:03;0.20;;;0.20;;
74344;SDS011;62776;50.518;6.732;2022-09-17T19:04:50;0.20;;;0.20;;
74344;SDS011;62776;50.518;6.732;2022-09-17T19:07:36;0.20;;;0.20;;
74344;SDS011;62776;50.518;6.732;2022-09-17T19:10:26;0.50;;;0.50;;
74344;SDS011;62776;50.518;6.732;2022-09-17T19:13:14;1.48;;;0.90;;
74344;SDS011;62776;50.518;6.732;2022-09-17T19:16:00;0.30;;;0.30;;
74344;SDS011;62776;50.518;6.732;2022-09-17T19:18:47;6.45;;;1.85;;
74344;SDS011;62776;50.518;6.732;2022-09-17T19:21:33;8.40;;;2.53;;
74344;SDS011;62776;50.518;6.732;2022-09-17T19:24:19;8.82;;;3.63;;
74344;SDS011;62776;50.518;6.732;2022-09-17T19:27:05;3.65;;;1.63;;
74344;SDS011;62776;50.518;6.732;2022-09-17T19:29:51;6.60;;;2.03;;
74344;SDS011;62776;50.518;6.732;2022-09-17T19:32:39;0.30;;;0.30;;
74344;SDS011;62776;50.518;6.732;2022-09-17T19:35:28;0.20;;;0.20;;
74344;SDS011;62776;50.518;6.732;2022-09-17T19:38:15;8.93;;;2.72;;
74344;SDS011;62776;50.518;6.732;2022-09-17T19:41:02;1.27;;;0.90;;
74344;SDS011;62776;50.518;6.732;2022-09-17T19:43:51;0.25;;;0.25;;